sensor_id;sensor_type;location;lat;lon;timestamp;pressure;altitude;pressure_sealevel;temperature;humidity
62617;BME280;62539;51.190;6.808;2022-08-05T00:00:14;101033.38;;;27.49;51.95
62617;BME280;62539;51.190;6.808;2022-08-05T00:02:44;101032.53;;;27.49;52.06
62617;BME280;62539;51.190;6.808;2022-08-05T00:05:10;101036.97;;;27.48;52.06
62617;BME280;62539;51.190;6.808;2022-08-05T00:07:36;101039.66;;;27.48;52.30
62617;BME280;62539;51.190;6.808;2022-08-05T00:10:03;101030.78;;;27.48;52.17
62617;BME280;62539;51.190;6.808;2022-08-05T00:12:29;101034.31;;;27.48;52.32
62617;BME280;62539;51.190;6.808;2022-08-05T00:14:54;101045.94;;;27.47;52.08
62617;BME280;62539;51.190;6.808;2022-08-05T00:17:20;101035.28;;;27.47;52.30
62617;BME280;62539;51.190;6.808;2022-08-05T00:19:45;101035.28;;;27.47;52.23
62617;BME280;62539;51.190;6.808;2022-08-05T00:22:11;101040.59;;;27.47;52.16
62617;BME280;62539;51.190;6.808;2022-08-05T00:24:36;101037.94;;;27.47;52.20
62617;BME280;62539;51.190;6.808;2022-08-05T00:27:01;101050.38;;;27.47;52.25
62617;BME280;62539;51.190;6.808;2022-08-05T00:29:27;101045.06;;;27.47;52.35
62617;BME280;62539;51.190;6.808;2022-08-05T00:31:53;101053.94;;;27.47;52.33
62617;BME280;62539;51.190;6.808;2022-08-05T00:34:19;101046.03;;;27.46;52.24
62617;BME280;62539;51.190;6.808;2022-08-05T00:36:44;101052.22;;;27.46;52.24
62617;BME280;62539;51.190;6.808;2022-08-05T00:39:10;101035.28;;;27.47;52.10
62617;BME280;62539;51.190;6.808;2022-08-05T00:41:36;101028.25;;;27.46;52.24
62617;BME280;62539;51.190;6.808;2022-08-05T00:44:02;101028.25;;;27.46;52.18
62617;BME280;62539;51.190;6.808;2022-08-05T00:46:28;101027.38;;;27.46;52.38
62617;BME280;62539;51.190;6.808;2022-08-05T00:48:54;101030.03;;;27.46;52.18
62617;BME280;62539;51.190;6.808;2022-08-05T00:51:19;101030.91;;;27.46;52.10
62617;BME280;62539;51.190;6.808;2022-08-05T00:53:46;101027.38;;;27.46;52.16
62617;BME280;62539;51.190;6.808;2022-08-05T00:56:14;101031.88;;;27.45;52.39
62617;BME280;62539;51.190;6.808;2022-08-05T00:58:41;101031.00;;;27.44;52.32
62617;BME280;62539;51.190;6.808;2022-08-05T01:01:09;101046.16;;;27.44;52.01
62617;BME280;62539;51.190;6.808;2022-08-05T01:03:37;101051.47;;;27.44;52.35
62617;BME280;62539;51.190;6.808;2022-08-05T01:06:04;101046.16;;;27.44;52.30
62617;BME280;62539;51.190;6.808;2022-08-05T01:08:30;101051.47;;;27.44;52.24
62617;BME280;62539;51.190;6.808;2022-08-05T01:10:59;101052.31;;;27.44;52.17
62617;BME280;62539;51.190;6.808;2022-08-05T01:13:54;101046.16;;;27.44;52.45
62617;BME280;62539;51.190;6.808;2022-08-05T01:16:32;101052.09;;;27.35;52.47
62617;BME280;62539;51.190;6.808;2022-08-05T01:19:22;101053.59;;;27.39;52.54
62617;BME280;62539;51.190;6.808;2022-08-05T01:31:32;101059.13;;;27.36;52.59
62617;BME280;62539;51.190;6.808;2022-08-05T01:34:08;101056.34;;;27.37;52.47
62617;BME280;62539;51.190;6.808;2022-08-05T01:36:53;101055.50;;;27.37;52.54
62617;BME280;62539;51.190;6.808;2022-08-05T01:39:23;101065.22;;;27.38;52.47
62617;BME280;62539;51.190;6.808;2022-08-05T01:41:52;101070.53;;;27.38;52.46
62617;BME280;62539;51.190;6.808;2022-08-05T01:44:19;101077.66;;;27.37;52.36
62617;BME280;62539;51.190;6.808;2022-08-05T01:46:47;101074.03;;;27.38;52.38
62617;BME280;62539;51.190;6.808;2022-08-05T01:49:33;101081.28;;;27.36;52.31
62617;BME280;62539;51.190;6.808;2022-08-05T01:52:01;101090.03;;;27.38;52.39
62617;BME280;62539;51.190;6.808;2022-08-05T01:54:39;101096.22;;;27.39;52.28
62617;BME280;62539;51.190;6.808;2022-08-05T01:57:09;101118.38;;;27.39;52.42
62617;BME280;62539;51.190;6.808;2022-08-05T01:59:39;101144.16;;;27.39;52.40
62617;BME280;62539;51.190;6.808;2022-08-05T02:02:07;101160.16;;;27.39;52.55
62617;BME280;62539;51.190;6.808;2022-08-05T02:04:37;101169.94;;;27.38;52.40
62617;BME280;62539;51.190;6.808;2022-08-05T02:07:06;101171.75;;;27.38;52.54
62617;BME280;62539;51.190;6.808;2022-08-05T02:09:32;101165.47;;;27.39;52.52
62617;BME280;62539;51.190;6.808;2022-08-05T02:15:18;101168.22;;;27.37;52.49
62617;BME280;62539;51.190;6.808;2022-08-05T02:17:51;101155.78;;;27.38;52.48
62617;BME280;62539;51.190;6.808;2022-08-05T02:20:25;101143.31;;;27.38;52.32
62617;BME280;62539;51.190;6.808;2022-08-05T02:22:57;101138.09;;;27.37;52.31
62617;BME280;62539;51.190;6.808;2022-08-05T02:25:28;101138.94;;;27.37;52.31
62617;BME280;62539;51.190;6.808;2022-08-05T02:27:58;101151.41;;;27.37;52.60
62617;BME280;62539;51.190;6.808;2022-08-05T02:30:38;101158.53;;;27.36;52.41
62617;BME280;62539;51.190;6.808;2022-08-05T02:33:10;101172.72;;;27.37;52.48
62617;BME280;62539;51.190;6.808;2022-08-05T02:35:41;101178.06;;;27.37;52.55
62617;BME280;62539;51.190;6.808;2022-08-05T02:38:09;101178.06;;;27.37;52.49
62617;BME280;62539;51.190;6.808;2022-08-05T02:40:41;101188.72;;;27.37;52.48
62617;BME280;62539;51.190;6.808;2022-08-05T02:43:09;101199.00;;;27.28;52.69
62617;BME280;62539;51.190;6.808;2022-08-05T02:45:37;101199.56;;;27.34;52.56
62617;BME280;62539;51.190;6.808;2022-08-05T02:48:06;101211.94;;;27.35;52.63
62617;BME280;62539;51.190;6.808;2022-08-05T02:50:34;101215.53;;;27.34;52.67
62617;BME280;62539;51.190;6.808;2022-08-05T02:53:01;101216.38;;;27.34;52.42
62617;BME280;62539;51.190;6.808;2022-08-05T02:55:29;101216.38;;;27.34;52.51
62617;BME280;62539;51.190;6.808;2022-08-05T02:57:57;101201.28;;;27.35;52.50
62617;BME280;62539;51.190;6.808;2022-08-05T03:00:24;101156.94;;;27.34;52.49
62617;BME280;62539;51.190;6.808;2022-08-05T03:02:51;101118.78;;;27.33;52.60
62617;BME280;62539;51.190;6.808;2022-08-05T03:05:18;101086.81;;;27.33;52.40
62617;BME280;62539;51.190;6.808;2022-08-05T03:07:44;101026.41;;;27.34;52.54
62617;BME280;62539;51.190;6.808;2022-08-05T03:10:14;101038.03;;;27.33;52.44
62617;BME280;62539;51.190;6.808;2022-08-05T03:12:40;101038.03;;;27.33;52.39
62617;BME280;62539;51.190;6.808;2022-08-05T03:15:08;101014.06;;;27.33;52.51
62617;BME280;62539;51.190;6.808;2022-08-05T03:17:36;100996.25;;;27.33;52.49
62617;BME280;62539;51.190;6.808;2022-08-05T03:20:03;101006.91;;;27.33;52.30
62617;BME280;62539;51.190;6.808;2022-08-05T03:22:29;101018.50;;;27.32;52.46
62617;BME280;62539;51.190;6.808;2022-08-05T03:24:55;101059.34;;;27.33;52.59
62617;BME280;62539;51.190;6.808;2022-08-05T03:27:22;101080.66;;;27.33;52.37
62617;BME280;62539;51.190;6.808;2022-08-05T03:29:48;101083.31;;;27.33;52.32
62617;BME280;62539;51.190;6.808;2022-08-05T03:32:13;101089.47;;;27.33;52.44
62617;BME280;62539;51.190;6.808;2022-08-05T03:34:40;101096.63;;;27.33;52.30
62617;BME280;62539;51.190;6.808;2022-08-05T03:37:07;101109.06;;;27.32;52.61
62617;BME280;62539;51.190;6.808;2022-08-05T03:39:32;101121.56;;;27.32;52.62
62617;BME280;62539;51.190;6.808;2022-08-05T03:41:58;101129.56;;;27.32;52.61
62617;BME280;62539;51.190;6.808;2022-08-05T03:44:24;101137.53;;;27.32;52.34
62617;BME280;62539;51.190;6.808;2022-08-05T03:46:50;101153.53;;;27.32;52.41
62617;BME280;62539;51.190;6.808;2022-08-05T03:49:16;101150.00;;;27.31;52.40
62617;BME280;62539;51.190;6.808;2022-08-05T03:51:47;101156.19;;;27.32;52.53
62617;BME280;62539;51.190;6.808;2022-08-05T03:54:30;101146.50;;;27.31;52.46
62617;BME280;62539;51.190;6.808;2022-08-05T03:57:01;101142.00;;;27.31;52.54
62617;BME280;62539;51.190;6.808;2022-08-05T03:59:55;101129.00;;;27.26;52.56
62617;BME280;62539;51.190;6.808;2022-08-05T04:02:26;101117.28;;;27.29;52.49
62617;BME280;62539;51.190;6.808;2022-08-05T04:04:56;101124.44;;;27.28;52.49
62617;BME280;62539;51.190;6.808;2022-08-05T04:07:23;101125.25;;;27.29;52.63
62617;BME280;62539;51.190;6.808;2022-08-05T04:09:49;101125.38;;;27.27;52.54
62617;BME280;62539;51.190;6.808;2022-08-05T04:12:16;101111.09;;;27.28;52.49
62617;BME280;62539;51.190;6.808;2022-08-05T04:14:42;101092.56;;;27.27;52.49
62617;BME280;62539;51.190;6.808;2022-08-05T04:17:08;101071.25;;;27.27;52.69
62617;BME280;62539;51.190;6.808;2022-08-05T04:19:41;101073.81;;;27.28;52.67
62617;BME280;62539;51.190;6.808;2022-08-05T04:22:11;101065.91;;;27.27;52.41
62617;BME280;62539;51.190;6.808;2022-08-05T04:24:44;101081.91;;;27.27;52.56
62617;BME280;62539;51.190;6.808;2022-08-05T04:27:13;101066.78;;;27.27;52.50
62617;BME280;62539;51.190;6.808;2022-08-05T04:29:40;101050.81;;;27.27;52.63
62617;BME280;62539;51.190;6.808;2022-08-05T04:32:07;101059.75;;;27.26;52.36
62617;BME280;62539;51.190;6.808;2022-08-05T04:34:33;101092.66;;;27.25;52.42
62617;BME280;62539;51.190;6.808;2022-08-05T04:36:59;101113.84;;;27.27;52.69
62617;BME280;62539;51.190;6.808;2022-08-05T04:39:25;101107.69;;;27.26;52.50
62617;BME280;62539;51.190;6.808;2022-08-05T04:41:50;101091.72;;;27.26;52.63
62617;BME280;62539;51.190;6.808;2022-08-05T04:44:15;101113.03;;;27.26;52.79
62617;BME280;62539;51.190;6.808;2022-08-05T04:46:41;101110.34;;;27.26;52.62
62617;BME280;62539;51.190;6.808;2022-08-05T04:49:07;101102.47;;;27.25;52.57
62617;BME280;62539;51.190;6.808;2022-08-05T04:51:32;101098.97;;;27.24;52.70
62617;BME280;62539;51.190;6.808;2022-08-05T04:53:58;101111.31;;;27.25;52.83
62617;BME280;62539;51.190;6.808;2022-08-05T04:56:24;101108.66;;;27.25;52.70
62617;BME280;62539;51.190;6.808;2022-08-05T04:58:50;101099.91;;;27.23;52.44
62617;BME280;62539;51.190;6.808;2022-08-05T05:01:15;101117.59;;;27.24;52.81
62617;BME280;62539;51.190;6.808;2022-08-05T05:03:41;101131.88;;;27.23;52.44
62617;BME280;62539;51.190;6.808;2022-08-05T05:06:09;101123.00;;;27.23;52.77
62617;BME280;62539;51.190;6.808;2022-08-05T05:08:37;101115.88;;;27.23;52.51
62617;BME280;62539;51.190;6.808;2022-08-05T05:11:03;101107.91;;;27.23;52.52
62617;BME280;62539;51.190;6.808;2022-08-05T05:13:29;101114.19;;;27.22;52.60
62617;BME280;62539;51.190;6.808;2022-08-05T05:15:54;101106.19;;;27.22;52.81
62617;BME280;62539;51.190;6.808;2022-08-05T05:18:20;101105.25;;;27.23;52.46
62617;BME280;62539;51.190;6.808;2022-08-05T05:20:46;101095.53;;;27.22;52.64
62617;BME280;62539;51.190;6.808;2022-08-05T05:23:12;101103.53;;;27.22;52.59
62617;BME280;62539;51.190;6.808;2022-08-05T05:25:42;101105.25;;;27.23;52.63
62617;BME280;62539;51.190;6.808;2022-08-05T05:28:08;101113.84;;;27.14;52.90
62617;BME280;62539;51.190;6.808;2022-08-05T05:30:35;101122.38;;;27.19;52.77
62617;BME280;62539;51.190;6.808;2022-08-05T05:33:03;101117.06;;;27.19;52.76
62617;BME280;62539;51.190;6.808;2022-08-05T05:35:31;101112.69;;;27.18;52.77
62617;BME280;62539;51.190;6.808;2022-08-05T05:37:59;101116.19;;;27.19;52.96
62617;BME280;62539;51.190;6.808;2022-08-05T05:40:28;101118.28;;;27.13;53.13
62617;BME280;62539;51.190;6.808;2022-08-05T05:42:54;101132.88;;;27.08;52.95
62617;BME280;62539;51.190;6.808;2022-08-05T05:45:20;101128.78;;;27.02;53.06
62617;BME280;62539;51.190;6.808;2022-08-05T05:47:46;101140.16;;;26.91;53.41
62617;BME280;62539;51.190;6.808;2022-08-05T05:50:15;101138.84;;;26.84;53.57
62617;BME280;62539;51.190;6.808;2022-08-05T05:52:42;101146.44;;;26.76;53.96
62617;BME280;62539;51.190;6.808;2022-08-05T05:55:11;101147.56;;;26.71;53.68
62617;BME280;62539;51.190;6.808;2022-08-05T05:57:39;101157.66;;;26.66;53.59
62617;BME280;62539;51.190;6.808;2022-08-05T06:00:10;101159.00;;;26.59;53.99
62617;BME280;62539;51.190;6.808;2022-08-05T06:02:38;101146.91;;;26.53;54.03
62617;BME280;62539;51.190;6.808;2022-08-05T06:05:08;101151.59;;;26.50;54.18
62617;BME280;62539;51.190;6.808;2022-08-05T06:07:36;101155.41;;;26.46;54.27
62617;BME280;62539;51.190;6.808;2022-08-05T06:10:03;101148.56;;;26.41;54.46
62617;BME280;62539;51.190;6.808;2022-08-05T06:12:29;101154.06;;;26.38;54.99
62617;BME280;62539;51.190;6.808;2022-08-05T06:14:55;101150.00;;;26.33;54.92
62617;BME280;62539;51.190;6.808;2022-08-05T06:17:20;101157.28;;;26.29;54.98
62617;BME280;62539;51.190;6.808;2022-08-05T06:19:46;101153.97;;;26.25;55.11
62617;BME280;62539;51.190;6.808;2022-08-05T06:22:11;101155.50;;;26.30;55.30
62617;BME280;62539;51.190;6.808;2022-08-05T06:24:46;101162.72;;;26.27;55.20
62617;BME280;62539;51.190;6.808;2022-08-05T06:27:11;101184.00;;;26.27;54.97
62617;BME280;62539;51.190;6.808;2022-08-05T06:29:36;101174.38;;;26.25;54.90
62617;BME280;62539;51.190;6.808;2022-08-05T06:32:02;101179.06;;;26.21;54.78
62617;BME280;62539;51.190;6.808;2022-08-05T06:34:27;101180.59;;;26.09;55.13
62617;BME280;62539;51.190;6.808;2022-08-05T06:36:53;101189.91;;;26.02;55.64
62617;BME280;62539;51.190;6.808;2022-08-05T06:39:18;101199.19;;;25.95;55.76
62617;BME280;62539;51.190;6.808;2022-08-05T06:41:43;101189.09;;;25.86;56.04
62617;BME280;62539;51.190;6.808;2022-08-05T06:44:09;101190.41;;;25.78;56.44
62617;BME280;62539;51.190;6.808;2022-08-05T06:46:34;101184.34;;;25.76;56.34
62617;BME280;62539;51.190;6.808;2022-08-05T06:49:00;101188.63;;;25.79;55.98
62617;BME280;62539;51.190;6.808;2022-08-05T06:51:25;101191.19;;;25.80;56.08
62617;BME280;62539;51.190;6.808;2022-08-05T06:53:50;101193.75;;;25.82;56.14
62617;BME280;62539;51.190;6.808;2022-08-05T06:56:16;101190.03;;;25.85;55.85
62617;BME280;62539;51.190;6.808;2022-08-05T06:58:43;101201.44;;;25.87;55.91
62617;BME280;62539;51.190;6.808;2022-08-05T07:01:09;101195.94;;;25.90;55.95
62617;BME280;62539;51.190;6.808;2022-08-05T07:03:34;101200.31;;;25.91;55.66
62617;BME280;62539;51.190;6.808;2022-08-05T07:06:00;101194.94;;;25.92;55.49
62617;BME280;62539;51.190;6.808;2022-08-05T07:08:28;101202.78;;;25.94;55.28
62617;BME280;62539;51.190;6.808;2022-08-05T07:10:54;101196.63;;;25.93;55.39
62617;BME280;62539;51.190;6.808;2022-08-05T07:13:21;101208.97;;;25.94;55.28
62617;BME280;62539;51.190;6.808;2022-08-05T07:16:06;101217.03;;;25.93;54.98
62617;BME280;62539;51.190;6.808;2022-08-05T07:18:50;101221.50;;;25.92;54.88
62617;BME280;62539;51.190;6.808;2022-08-05T07:21:16;101229.47;;;25.92;54.72
62617;BME280;62539;51.190;6.808;2022-08-05T07:23:41;101242.78;;;25.92;55.05
62617;BME280;62539;51.190;6.808;2022-08-05T07:26:07;101239.25;;;25.92;54.57
62617;BME280;62539;51.190;6.808;2022-08-05T07:28:32;101248.94;;;25.93;54.72
62617;BME280;62539;51.190;6.808;2022-08-05T07:30:57;101244.56;;;25.92;54.69
62617;BME280;62539;51.190;6.808;2022-08-05T07:33:23;101254.41;;;25.90;54.46
62617;BME280;62539;51.190;6.808;2022-08-05T07:35:48;101255.28;;;25.90;53.84
62617;BME280;62539;51.190;6.808;2022-08-05T07:38:15;101258.97;;;25.88;54.01
62617;BME280;62539;51.190;6.808;2022-08-05T07:40:41;101263.34;;;25.89;53.87
62617;BME280;62539;51.190;6.808;2022-08-05T07:43:08;101262.50;;;25.88;53.71
62617;BME280;62539;51.190;6.808;2022-08-05T07:45:34;101267.81;;;25.88;53.96
62617;BME280;62539;51.190;6.808;2022-08-05T07:48:00;101266.94;;;25.88;53.43
62617;BME280;62539;51.190;6.808;2022-08-05T07:50:25;101270.53;;;25.87;53.44
62617;BME280;62539;51.190;6.808;2022-08-05T07:52:51;101270.66;;;25.85;53.61
62617;BME280;62539;51.190;6.808;2022-08-05T07:55:16;101279.47;;;25.86;53.68
62617;BME280;62539;51.190;6.808;2022-08-05T07:57:42;101284.00;;;25.83;53.58
62617;BME280;62539;51.190;6.808;2022-08-05T08:00:08;101295.50;;;25.84;53.56
62617;BME280;62539;51.190;6.808;2022-08-05T08:02:34;101300.91;;;25.82;53.15
62617;BME280;62539;51.190;6.808;2022-08-05T08:05:00;101308.03;;;25.82;52.98
62617;BME280;62539;51.190;6.808;2022-08-05T08:07:26;101307.16;;;25.81;53.23
62617;BME280;62539;51.190;6.808;2022-08-05T08:09:52;101306.38;;;25.79;53.07
62617;BME280;62539;51.190;6.808;2022-08-05T08:12:18;101310.00;;;25.78;52.70
62617;BME280;62539;51.190;6.808;2022-08-05T08:14:44;101313.59;;;25.77;52.89
62617;BME280;62539;51.190;6.808;2022-08-05T08:17:09;101319.97;;;25.75;52.30
62617;BME280;62539;51.190;6.808;2022-08-05T08:19:37;101323.56;;;25.74;52.49
62617;BME280;62539;51.190;6.808;2022-08-05T08:22:04;101331.53;;;25.74;52.63
62617;BME280;62539;51.190;6.808;2022-08-05T08:24:30;101333.41;;;25.72;52.22
62617;BME280;62539;51.190;6.808;2022-08-05T08:26:56;101334.53;;;25.67;52.28
62617;BME280;62539;51.190;6.808;2022-08-05T08:29:21;101353.19;;;25.66;52.23
62617;BME280;62539;51.190;6.808;2022-08-05T08:31:47;101344.38;;;25.65;51.91
62617;BME280;62539;51.190;6.808;2022-08-05T08:34:18;101346.16;;;25.65;51.94
62617;BME280;62539;51.190;6.808;2022-08-05T08:36:45;101342.75;;;25.63;52.02
62617;BME280;62539;51.190;6.808;2022-08-05T08:39:11;101341.97;;;25.61;51.85
62617;BME280;62539;51.190;6.808;2022-08-05T08:41:39;101348.22;;;25.60;51.85
62617;BME280;62539;51.190;6.808;2022-08-05T08:44:09;101357.13;;;25.59;52.03
62617;BME280;62539;51.190;6.808;2022-08-05T08:46:36;101342.25;;;25.56;52.14
62617;BME280;62539;51.190;6.808;2022-08-05T08:49:03;101350.28;;;25.54;51.80
62617;BME280;62539;51.190;6.808;2022-08-05T08:51:32;101351.22;;;25.53;51.52
62617;BME280;62539;51.190;6.808;2022-08-05T08:53:59;101361.94;;;25.52;51.22
62617;BME280;62539;51.190;6.808;2022-08-05T08:56:26;101371.69;;;25.51;51.55
62617;BME280;62539;51.190;6.808;2022-08-05T08:58:51;101372.75;;;25.49;51.05
62617;BME280;62539;51.190;6.808;2022-08-05T09:01:17;101370.16;;;25.47;51.20
62617;BME280;62539;51.190;6.808;2022-08-05T09:03:52;101373.75;;;25.46;50.65
62617;BME280;62539;51.190;6.808;2022-08-05T09:06:18;101373.69;;;25.48;50.79
62617;BME280;62539;51.190;6.808;2022-08-05T09:08:44;101379.06;;;25.46;50.66
62617;BME280;62539;51.190;6.808;2022-08-05T09:11:10;101385.31;;;25.45;50.55
62617;BME280;62539;51.190;6.808;2022-08-05T09:13:37;101390.63;;;25.45;50.25
62617;BME280;62539;51.190;6.808;2022-08-05T09:16:03;101387.97;;;25.45;50.19
62617;BME280;62539;51.190;6.808;2022-08-05T09:18:29;101394.19;;;25.44;50.20
62617;BME280;62539;51.190;6.808;2022-08-05T09:20:54;101396.94;;;25.43;50.33
62617;BME280;62539;51.190;6.808;2022-08-05T09:23:20;101406.78;;;25.41;50.55
62617;BME280;62539;51.190;6.808;2022-08-05T09:25:51;101413.81;;;25.42;50.40
62617;BME280;62539;51.190;6.808;2022-08-05T09:28:30;101407.63;;;25.41;50.48
62617;BME280;62539;51.190;6.808;2022-08-05T09:31:01;101404.13;;;25.41;50.15
62617;BME280;62539;51.190;6.808;2022-08-05T09:33:29;101414.84;;;25.39;50.50
62617;BME280;62539;51.190;6.808;2022-08-05T09:35:57;101408.56;;;25.40;50.38
62617;BME280;62539;51.190;6.808;2022-08-05T09:38:24;101404.13;;;25.41;50.66
62617;BME280;62539;51.190;6.808;2022-08-05T09:40:51;101404.03;;;25.42;50.55
62617;BME280;62539;51.190;6.808;2022-08-05T09:43:36;101424.50;;;25.40;50.78
62617;BME280;62539;51.190;6.808;2022-08-05T09:46:05;101425.38;;;25.41;50.76
62617;BME280;62539;51.190;6.808;2022-08-05T09:48:36;101425.38;;;25.41;50.56
62617;BME280;62539;51.190;6.808;2022-08-05T09:51:07;101430.78;;;25.39;51.44
62617;BME280;62539;51.190;6.808;2022-08-05T09:53:50;101436.25;;;25.36;51.25
62617;BME280;62539;51.190;6.808;2022-08-05T09:56:28;101425.63;;;25.36;51.36
62617;BME280;62539;51.190;6.808;2022-08-05T10:01:29;101438.06;;;25.35;51.44
62617;BME280;62539;51.190;6.808;2022-08-05T10:04:04;101444.31;;;25.34;50.84
62617;BME280;62539;51.190;6.808;2022-08-05T10:06:33;101447.91;;;25.33;51.11
62617;BME280;62539;51.190;6.808;2022-08-05T10:09:15;101449.78;;;25.31;51.04
62617;BME280;62539;51.190;6.808;2022-08-05T10:11:42;101445.16;;;25.35;51.14
62617;BME280;62539;51.190;6.808;2022-08-05T10:16:51;101453.06;;;25.36;50.92
62617;BME280;62539;51.190;6.808;2022-08-05T10:19:21;101462.63;;;25.39;51.19
62617;BME280;62539;51.190;6.808;2022-08-05T10:21:48;101467.00;;;25.40;51.26
62617;BME280;62539;51.190;6.808;2022-08-05T10:24:18;101468.44;;;25.47;51.04
62617;BME280;62539;51.190;6.808;2022-08-05T10:26:47;101477.19;;;25.49;50.96
62617;BME280;62539;51.190;6.808;2022-08-05T10:29:13;101477.13;;;25.51;50.78
62617;BME280;62539;51.190;6.808;2022-08-05T10:31:39;101486.03;;;25.50;50.80
62617;BME280;62539;51.190;6.808;2022-08-05T10:34:07;101485.69;;;25.56;50.86
62617;BME280;62539;51.190;6.808;2022-08-05T10:36:37;101489.34;;;25.53;50.70
62617;BME280;62539;51.190;6.808;2022-08-05T10:39:09;101495.44;;;25.56;50.33
62617;BME280;62539;51.190;6.808;2022-08-05T10:41:50;101502.88;;;25.82;49.34
62617;BME280;62539;51.190;6.808;2022-08-05T10:44:19;101489.34;;;25.87;49.23
62617;BME280;62539;51.190;6.808;2022-08-05T10:46:51;101493.47;;;25.93;49.04
62617;BME280;62539;51.190;6.808;2022-08-05T10:49:20;101496.72;;;25.98;48.57
62617;BME280;62539;51.190;6.808;2022-08-05T10:51:47;101496.09;;;26.26;47.79
62617;BME280;62539;51.190;6.808;2022-08-05T10:54:15;101494.63;;;26.37;47.60
62617;BME280;62539;51.190;6.808;2022-08-05T10:56:49;101492.16;;;26.34;47.71
62617;BME280;62539;51.190;6.808;2022-08-05T10:59:18;101502.25;;;26.27;47.21
62617;BME280;62539;51.190;6.808;2022-08-05T11:02:05;101511.75;;;25.99;47.30
62617;BME280;62539;51.190;6.808;2022-08-05T11:04:43;101512.34;;;25.88;47.26
62617;BME280;62539;51.190;6.808;2022-08-05T11:07:11;101514.91;;;25.90;47.11
62617;BME280;62539;51.190;6.808;2022-08-05T11:09:47;101524.34;;;25.95;47.17
62617;BME280;62539;51.190;6.808;2022-08-05T11:15:05;101520.81;;;25.95;46.70
62617;BME280;62539;51.190;6.808;2022-08-05T11:17:40;101528.34;;;25.87;47.25
62617;BME280;62539;51.190;6.808;2022-08-05T11:20:34;101524.91;;;25.85;46.82
62617;BME280;62539;51.190;6.808;2022-08-05T11:23:51;101521.75;;;25.94;46.88
62617;BME280;62539;51.190;6.808;2022-08-05T11:28:48;101522.25;;;25.85;46.97
62617;BME280;62539;51.190;6.808;2022-08-05T11:36:17;101520.50;;;26.01;46.86
62617;BME280;62539;51.190;6.808;2022-08-05T11:41:16;101523.31;;;25.98;46.88
62617;BME280;62539;51.190;6.808;2022-08-05T11:43:58;101523.31;;;25.98;47.06
62617;BME280;62539;51.190;6.808;2022-08-05T11:46:28;101531.56;;;26.09;47.12
62617;BME280;62539;51.190;6.808;2022-08-05T11:49:04;101525.63;;;26.04;47.09
62617;BME280;62539;51.190;6.808;2022-08-05T11:51:31;101521.25;;;26.03;46.69
62617;BME280;62539;51.190;6.808;2022-08-05T11:53:57;101526.69;;;26.02;47.24
62617;BME280;62539;51.190;6.808;2022-08-05T11:56:23;101530.44;;;25.97;47.09
62617;BME280;62539;51.190;6.808;2022-08-05T11:58:49;101531.38;;;25.96;47.03
62617;BME280;62539;51.190;6.808;2022-08-05T12:01:20;101536.53;;;26.00;47.33
62617;BME280;62539;51.190;6.808;2022-08-05T12:06:21;101519.88;;;25.96;47.42
62617;BME280;62539;51.190;6.808;2022-08-05T12:08:53;101526.13;;;25.95;47.58
62617;BME280;62539;51.190;6.808;2022-08-05T12:11:26;101525.03;;;25.99;47.23
62617;BME280;62539;51.190;6.808;2022-08-05T12:14:04;101526.06;;;25.96;47.33
62617;BME280;62539;51.190;6.808;2022-08-05T12:16:37;101526.25;;;25.93;47.57
62617;BME280;62539;51.190;6.808;2022-08-05T12:19:06;101533.44;;;25.91;47.47
62617;BME280;62539;51.190;6.808;2022-08-05T12:21:48;101531.72;;;25.90;47.11
62617;BME280;62539;51.190;6.808;2022-08-05T12:24:19;101531.78;;;25.89;47.38
62617;BME280;62539;51.190;6.808;2022-08-05T12:26:50;101546.03;;;25.88;47.34
62617;BME280;62539;51.190;6.808;2022-08-05T12:29:23;101541.47;;;25.90;47.45
62617;BME280;62539;51.190;6.808;2022-08-05T12:31:56;101537.03;;;25.90;47.03
62617;BME280;62539;51.190;6.808;2022-08-05T12:34:26;101544.06;;;25.91;47.17
62617;BME280;62539;51.190;6.808;2022-08-05T12:37:09;101545.84;;;25.91;47.04
62617;BME280;62539;51.190;6.808;2022-08-05T12:39:39;101551.25;;;25.89;47.17
62617;BME280;62539;51.190;6.808;2022-08-05T12:42:11;101550.31;;;25.90;47.12
62617;BME280;62539;51.190;6.808;2022-08-05T12:44:40;101549.91;;;25.98;47.01
62617;BME280;62539;51.190;6.808;2022-08-05T12:47:06;101553.50;;;25.97;46.99
62617;BME280;62539;51.190;6.808;2022-08-05T12:49:39;101556.94;;;25.99;46.75
62617;BME280;62539;51.190;6.808;2022-08-05T12:52:16;101571.16;;;25.98;46.96
62617;BME280;62539;51.190;6.808;2022-08-05T12:54:46;101565.84;;;25.98;46.94
62617;BME280;62539;51.190;6.808;2022-08-05T12:57:16;101568.09;;;26.06;46.45
62617;BME280;62539;51.190;6.808;2022-08-05T12:59:53;101560.91;;;26.08;46.32
62617;BME280;62539;51.190;6.808;2022-08-05T13:02:22;101573.31;;;26.07;46.67
62617;BME280;62539;51.190;6.808;2022-08-05T13:04:50;101571.59;;;26.06;46.25
62617;BME280;62539;51.190;6.808;2022-08-05T13:07:22;101569.72;;;26.08;46.37
62617;BME280;62539;51.190;6.808;2022-08-05T13:09:51;101578.56;;;26.09;46.47
62617;BME280;62539;51.190;6.808;2022-08-05T13:12:20;101574.28;;;26.06;46.26
62617;BME280;62539;51.190;6.808;2022-08-05T13:14:54;101577.09;;;26.03;45.89
62617;BME280;62539;51.190;6.808;2022-08-05T13:17:26;101585.06;;;26.03;46.20
62617;BME280;62539;51.190;6.808;2022-08-05T13:22:31;101597.59;;;26.01;45.95
62617;BME280;62539;51.190;6.808;2022-08-05T13:25:00;101600.97;;;26.05;46.50
62617;BME280;62539;51.190;6.808;2022-08-05T13:27:38;101600.78;;;26.08;46.09
62617;BME280;62539;51.190;6.808;2022-08-05T13:30:08;101614.63;;;26.15;46.58
62617;BME280;62539;51.190;6.808;2022-08-05T13:32:34;101618.19;;;26.13;45.96
62617;BME280;62539;51.190;6.808;2022-08-05T13:35:00;101622.13;;;26.06;45.69